Time;durP1;ratioP1;P1;durP2;ratioP2;P2;SDS_P1;SDS_P2;PMS_P1;PMS_P2;Temp;Humidity;BMP_temperature;BMP_pressure;BME280_temperature;BME280_humidity;BME280_pressure;Samples;Min_cycle;Max_cycle;Signal;HPM_P1;HPM_P2
2023/02/22 00:00:42;;;;;;;16.45;8.02;;;6.50;99.90;;;;;;4917274;29;20208;-82
2023/02/22 00:03:14;;;;;;;14.25;7.80;;;6.40;99.90;;;;;;4920964;29;20261;-82
2023/02/22 00:05:45;;;;;;;14.43;6.72;;;6.50;99.90;;;;;;4931675;29;20215;-84
2023/02/22 00:08:14;;;;;;;25.85;11.43;;;6.40;99.90;;;;;;4924247;29;20239;-84
2023/02/22 00:10:42;;;;;;;14.15;7.22;;;6.40;99.90;;;;;;4934902;29;20211;-84
2023/02/22 00:13:12;;;;;;;21.88;9.48;;;6.40;99.90;;;;;;4930341;29;20251;-82
2023/02/22 00:15:40;;;;;;;14.05;6.47;;;6.20;99.90;;;;;;4934129;29;20496;-83
2023/02/22 00:18:09;;;;;;;16.45;7.05;;;6.20;99.90;;;;;;4929273;29;20204;-81
2023/02/22 00:20:39;;;;;;;18.58;8.95;;;6.10;99.90;;;;;;4937125;29;20211;-82
2023/02/22 00:23:11;;;;;;;14.40;8.27;;;5.80;99.90;;;;;;4926635;29;20243;-81
2023/02/22 00:25:38;;;;;;;11.68;7.13;;;5.90;99.90;;;;;;4931765;29;20223;-82
2023/02/22 00:28:05;;;;;;;16.40;10.07;;;5.80;99.90;;;;;;4923715;29;20263;-82
2023/02/22 00:30:33;;;;;;;15.43;7.90;;;6.00;99.90;;;;;;4937655;29;20252;-82
2023/02/22 00:33:00;;;;;;;15.95;9.40;;;5.90;99.90;;;;;;4927030;29;20547;-81
2023/02/22 00:35:28;;;;;;;15.90;8.43;;;6.00;99.90;;;;;;4923194;29;20279;-81
2023/02/22 00:37:58;;;;;;;13.07;8.90;;;5.90;99.90;;;;;;4935795;29;20492;-82
2023/02/22 00:40:29;;;;;;;15.77;9.82;;;5.80;99.90;;;;;;4935119;29;20212;-83
2023/02/22 00:42:57;;;;;;;19.25;8.60;;;5.80;99.90;;;;;;4933976;29;20282;-83
2023/02/22 00:45:28;;;;;;;17.05;9.63;;;5.70;99.90;;;;;;4933984;29;20238;-82
2023/02/22 00:47:56;;;;;;;16.60;7.25;;;5.70;99.90;;;;;;4929666;29;20531;-83
2023/02/22 00:50:25;;;;;;;15.57;10.52;;;5.60;99.90;;;;;;4934894;29;20255;-82
2023/02/22 00:52:53;;;;;;;18.83;9.27;;;5.70;99.90;;;;;;4929856;29;20272;-82
2023/02/22 00:55:23;;;;;;;15.40;8.30;;;5.80;99.90;;;;;;4934926;29;20222;-82
2023/02/22 00:57:50;;;;;;;18.80;8.73;;;5.70;99.90;;;;;;4929506;29;20405;-83
2023/02/22 01:00:21;;;;;;;15.48;8.10;;;5.70;99.90;;;;;;4929039;29;20208;-85
2023/02/22 01:02:49;;;;;;;22.60;9.30;;;5.60;99.90;;;;;;4924642;29;20236;-84
2023/02/22 01:05:21;;;;;;;17.60;9.05;;;5.50;99.90;;;;;;4938049;29;20211;-84
2023/02/22 01:07:49;;;;;;;24.75;9.13;;;5.60;99.90;;;;;;4934297;29;20211;-84
2023/02/22 01:10:19;;;;;;;13.43;8.77;;;5.70;99.90;;;;;;4924831;29;20334;-82
2023/02/22 01:12:48;;;;;;;25.63;10.00;;;5.80;99.90;;;;;;4917981;29;20251;-84
2023/02/22 01:15:20;;;;;;;16.83;9.23;;;5.90;99.90;;;;;;4938161;29;20408;-83
2023/02/22 01:17:49;;;;;;;18.70;11.45;;;6.00;99.90;;;;;;4924209;29;20239;-82
2023/02/22 01:20:17;;;;;;;19.85;9.55;;;6.00;99.90;;;;;;4922079;29;20261;-84
2023/02/22 01:22:46;;;;;;;31.15;10.10;;;6.00;99.90;;;;;;4933009;29;20239;-83
2023/02/22 01:25:19;;;;;;;17.98;9.65;;;6.10;99.90;;;;;;4927457;29;20213;-84
2023/02/22 01:27:46;;;;;;;12.32;8.43;;;6.20;99.90;;;;;;4927206;29;20552;-82
2023/02/22 01:30:13;;;;;;;21.65;9.05;;;6.20;99.90;;;;;;4921974;29;20224;-82
2023/02/22 01:32:41;;;;;;;15.68;9.65;;;6.30;99.90;;;;;;4931556;29;20353;-81
2023/02/22 01:35:13;;;;;;;18.90;10.30;;;6.30;99.90;;;;;;4931602;29;20212;-81
2023/02/22 01:37:41;;;;;;;25.67;8.98;;;6.20;99.90;;;;;;4924302;29;20378;-81
2023/02/22 01:40:15;;;;;;;16.85;9.85;;;6.30;99.90;;;;;;4929908;29;20211;-82
2023/02/22 01:42:43;;;;;;;17.60;9.65;;;6.40;99.90;;;;;;4922522;29;20282;-81
2023/02/22 01:45:29;;;;;;;12.35;8.27;;;6.30;99.90;;;;;;4933084;29;20211;-82
2023/02/22 01:48:16;;;;;;;16.60;10.00;;;6.10;99.90;;;;;;4939853;29;20467;-83
2023/02/22 01:50:54;;;;;;;18.13;8.80;;;6.10;99.90;;;;;;4922034;29;20212;-82
2023/02/22 01:53:29;;;;;;;15.75;9.27;;;5.90;99.90;;;;;;4924965;29;20753;-83
2023/02/22 01:55:57;;;;;;;16.10;9.23;;;5.70;99.90;;;;;;4933234;29;20377;-83
2023/02/22 01:58:26;;;;;;;11.32;8.45;;;5.60;99.90;;;;;;4931038;29;20204;-83
2023/02/22 02:00:56;;;;;;;23.13;9.60;;;5.60;99.90;;;;;;4934158;29;20259;-83
2023/02/22 02:03:28;;;;;;;17.20;9.48;;;5.60;99.90;;;;;;4933420;29;20400;-82
2023/02/22 02:05:59;;;;;;;11.30;7.55;;;5.60;99.90;;;;;;4921096;29;20197;-81
2023/02/22 02:08:50;;;;;;;15.65;7.70;;;5.70;99.90;;;;;;4929698;29;20580;-83
2023/02/22 02:11:21;;;;;;;14.77;8.90;;;5.70;99.90;;;;;;4933831;29;20222;-83
2023/02/22 02:13:54;;;;;;;25.08;8.27;;;5.70;99.90;;;;;;4936357;29;20203;-84
2023/02/22 02:16:33;;;;;;;16.80;9.50;;;5.70;99.90;;;;;;4928930;29;20274;-83
2023/02/22 02:19:07;;;;;;;21.00;9.07;;;5.60;99.90;;;;;;4938250;29;20207;-83
2023/02/22 02:22:11;;;;;;;21.15;8.82;;;5.50;99.90;;;;;;4946689;28;20216;-83
2023/02/22 02:24:59;;;;;;;17.35;7.10;;;5.40;99.90;;;;;;4942163;28;20211;-83
2023/02/22 02:27:42;;;;;;;24.08;9.70;;;5.40;99.90;;;;;;4940834;28;20212;-80
2023/02/22 02:30:24;;;;;;;19.98;8.20;;;5.30;99.90;;;;;;4930880;29;20204;-84
2023/02/22 02:33:03;;;;;;;15.70;8.85;;;5.30;99.90;;;;;;4928621;29;20226;-83
2023/02/22 02:35:46;;;;;;;14.73;9.27;;;5.50;99.90;;;;;;4934983;29;20252;-84
2023/02/22 02:38:26;;;;;;;20.83;9.63;;;5.70;99.90;;;;;;4932112;29;20220;-84
2023/02/22 02:41:18;;;;;;;19.55;8.23;;;5.70;99.90;;;;;;4922446;29;20282;-84
2023/02/22 02:43:56;;;;;;;18.58;8.30;;;5.90;99.90;;;;;;4922713;29;20236;-85
2023/02/22 02:46:38;;;;;;;19.70;8.60;;;6.00;99.90;;;;;;4936095;29;20235;-85
2023/02/22 02:49:13;;;;;;;14.52;9.05;;;6.10;99.90;;;;;;4931408;29;20284;-84
2023/02/22 02:51:46;;;;;;;22.83;8.13;;;6.20;99.90;;;;;;4924341;29;20208;-83
2023/02/22 02:54:14;;;;;;;16.27;7.65;;;6.10;99.90;;;;;;4933314;29;20602;-81
2023/02/22 02:56:43;;;;;;;19.55;9.32;;;6.30;99.90;;;;;;4925165;29;20220;-83
2023/02/22 02:59:36;;;;;;;15.45;8.70;;;6.30;99.90;;;;;;4935461;29;20200;-84
2023/02/22 03:02:43;;;;;;;16.50;8.57;;;6.20;99.90;;;;;;4920720;29;20228;-85
2023/02/22 03:05:38;;;;;;;13.30;7.68;;;6.40;99.90;;;;;;4927108;29;20342;-85
2023/02/22 03:08:44;;;;;;;14.68;7.88;;;6.50;99.90;;;;;;4922886;29;20287;-84
2023/02/22 03:11:28;;;;;;;16.95;8.50;;;6.60;99.90;;;;;;4924556;29;20646;-83
2023/02/22 03:14:32;;;;;;;15.20;8.15;;;6.50;99.90;;;;;;4923481;29;20212;-82
2023/02/22 03:17:10;;;;;;;17.50;8.80;;;6.50;99.90;;;;;;4930132;29;20427;-83
2023/02/22 03:19:46;;;;;;;18.92;7.85;;;6.60;99.90;;;;;;4933575;29;20246;-84
2023/02/22 03:22:19;;;;;;;14.13;6.60;;;6.70;99.90;;;;;;4930339;29;20211;-82
2023/02/22 03:24:57;;;;;;;22.50;7.57;;;6.90;99.90;;;;;;4922523;29;20358;-84
2023/02/22 03:27:24;;;;;;;22.98;8.25;;;7.00;99.90;;;;;;4930795;29;20700;-84
2023/02/22 03:29:59;;;;;;;20.00;6.85;;;7.10;99.90;;;;;;4932976;29;20208;-82
2023/02/22 03:32:33;;;;;;;14.45;6.80;;;7.10;99.90;;;;;;4922070;29;20204;-84
2023/02/22 03:35:10;;;;;;;13.25;6.95;;;7.10;99.90;;;;;;4923283;29;20204;-84
2023/02/22 03:37:42;;;;;;;17.60;9.20;;;7.10;99.90;;;;;;4925794;29;20503;-84
2023/02/22 03:40:16;;;;;;;20.25;8.82;;;7.10;99.90;;;;;;4928759;29;20212;-83
2023/02/22 03:42:51;;;;;;;13.27;6.90;;;6.90;99.90;;;;;;4925538;29;20236;-85
2023/02/22 03:45:25;;;;;;;22.58;8.52;;;7.00;99.90;;;;;;4935705;29;20207;-83
2023/02/22 03:48:11;;;;;;;10.35;6.13;;;6.90;99.90;;;;;;4934037;29;20887;-83
2023/02/22 03:50:38;;;;;;;17.45;7.82;;;6.90;99.90;;;;;;4929215;29;20479;-82
2023/02/22 03:53:06;;;;;;;17.08;6.82;;;6.90;99.90;;;;;;4928912;29;20208;-84
2023/02/22 03:55:33;;;;;;;16.80;6.60;;;6.90;99.90;;;;;;4930229;29;20212;-82
2023/02/22 03:58:05;;;;;;;22.90;7.47;;;7.00;99.90;;;;;;4928462;29;20261;-82
2023/02/22 04:00:33;;;;;;;14.93;6.32;;;7.00;99.90;;;;;;4920184;29;20512;-84
2023/02/22 04:03:02;;;;;;;13.77;6.90;;;7.00;99.90;;;;;;4920744;29;20221;-84
2023/02/22 04:05:31;;;;;;;15.65;6.78;;;7.20;99.90;;;;;;4933019;29;20298;-82
2023/02/22 04:07:58;;;;;;;17.55;7.10;;;7.10;99.90;;;;;;4935187;29;20318;-82
2023/02/22 04:10:25;;;;;;;7.28;5.40;;;7.30;99.90;;;;;;4920783;29;20212;-83
2023/02/22 04:12:55;;;;;;;14.65;6.75;;;7.30;99.90;;;;;;4920977;29;20216;-83
2023/02/22 04:15:23;;;;;;;13.90;6.30;;;7.30;99.90;;;;;;4930433;29;20212;-84
2023/02/22 04:17:51;;;;;;;15.20;7.15;;;7.30;99.90;;;;;;4922799;29;20263;-83
2023/02/22 04:20:24;;;;;;;10.38;5.28;;;7.10;99.90;;;;;;4931738;29;20676;-82
2023/02/22 04:22:57;;;;;;;10.63;5.68;;;7.20;99.90;;;;;;4935541;29;20562;-83
2023/02/22 04:25:24;;;;;;;15.05;6.75;;;7.20;99.90;;;;;;4931739;29;20205;-83
2023/02/22 04:27:53;;;;;;;8.65;5.85;;;7.30;99.90;;;;;;4914748;29;20272;-81
2023/02/22 04:30:21;;;;;;;13.65;6.70;;;7.20;99.90;;;;;;4924860;29;20505;-81
2023/02/22 04:32:47;;;;;;;10.15;6.20;;;7.20;99.90;;;;;;4924427;29;20213;-80
2023/02/22 04:35:14;;;;;;;15.43;7.10;;;7.10;99.90;;;;;;4918742;29;20260;-79
2023/02/22 04:37:41;;;;;;;11.55;5.57;;;7.20;99.90;;;;;;4932647;29;20201;-78
2023/02/22 04:40:10;;;;;;;16.10;7.78;;;7.40;99.90;;;;;;4926364;29;20208;-79
2023/02/22 04:42:38;;;;;;;22.55;7.63;;;7.30;99.90;;;;;;4930082;29;20246;-79
2023/02/22 04:45:07;;;;;;;14.18;6.25;;;7.40;99.90;;;;;;4931746;29;20208;-80
2023/02/22 04:47:35;;;;;;;16.42;6.45;;;7.40;99.90;;;;;;4929528;29;20212;-80
2023/02/22 04:50:04;;;;;;;15.82;6.72;;;7.40;99.90;;;;;;4924984;29;20209;-79
2023/02/22 04:52:31;;;;;;;12.70;5.60;;;7.50;99.90;;;;;;4928515;29;20212;-79
2023/02/22 04:54:58;;;;;;;19.25;6.95;;;7.50;99.90;;;;;;4931231;29;20200;-80
2023/02/22 04:57:26;;;;;;;11.48;6.38;;;7.50;99.90;;;;;;4928605;29;20208;-79
2023/02/22 04:59:52;;;;;;;20.05;7.95;;;7.50;99.90;;;;;;4924718;29;20271;-80
2023/02/22 05:02:19;;;;;;;18.67;5.53;;;7.70;99.90;;;;;;4920310;29;20218;-81
2023/02/22 05:04:49;;;;;;;16.95;7.85;;;7.60;99.90;;;;;;4921310;29;20310;-80
2023/02/22 05:07:16;;;;;;;11.05;6.13;;;7.60;99.90;;;;;;4947014;29;20200;-79
2023/02/22 05:09:43;;;;;;;16.58;6.82;;;7.70;99.90;;;;;;4940365;29;20507;-79
2023/02/22 05:12:10;;;;;;;19.92;5.85;;;7.50;99.90;;;;;;4940917;29;20191;-79
2023/02/22 05:14:37;;;;;;;22.30;5.88;;;7.60;99.90;;;;;;4937549;29;20240;-81
2023/02/22 05:17:04;;;;;;;9.52;5.85;;;7.60;99.90;;;;;;4932618;29;20205;-80
2023/02/22 05:19:31;;;;;;;10.80;6.35;;;7.70;99.90;;;;;;4922139;29;20212;-80
2023/02/22 05:21:59;;;;;;;14.85;6.53;;;7.70;99.90;;;;;;4926791;29;20985;-80
2023/02/22 05:24:25;;;;;;;17.77;6.80;;;7.60;99.90;;;;;;4932916;29;20220;-80
2023/02/22 05:26:53;;;;;;;10.43;6.55;;;7.70;99.90;;;;;;4920659;29;20576;-80
2023/02/22 05:29:19;;;;;;;17.40;7.30;;;7.70;99.90;;;;;;4933392;29;20204;-80
2023/02/22 05:31:46;;;;;;;15.20;7.35;;;7.70;99.90;;;;;;4921506;29;20217;-81
2023/02/22 05:34:15;;;;;;;13.80;8.07;;;7.70;99.90;;;;;;4925577;29;20536;-80
2023/02/22 05:36:42;;;;;;;14.82;7.40;;;7.70;99.90;;;;;;4934461;29;20827;-80
2023/02/22 05:39:09;;;;;;;26.23;9.80;;;7.70;99.90;;;;;;4929941;29;20216;-79
2023/02/22 05:41:36;;;;;;;14.75;7.07;;;7.70;99.90;;;;;;4929583;29;20217;-80
2023/02/22 05:44:03;;;;;;;20.17;9.88;;;7.50;99.90;;;;;;4927649;29;20237;-81
2023/02/22 05:46:30;;;;;;;19.73;8.85;;;7.60;99.90;;;;;;4929355;29;20254;-81
2023/02/22 05:48:57;;;;;;;14.93;7.70;;;7.50;99.90;;;;;;4926294;29;20286;-79
2023/02/22 05:51:24;;;;;;;17.23;8.18;;;7.70;99.90;;;;;;4929612;29;20208;-81
2023/02/22 05:53:51;;;;;;;10.32;6.70;;;7.70;99.90;;;;;;4934251;29;20216;-81
2023/02/22 05:56:24;;;;;;;24.00;6.75;;;7.40;99.90;;;;;;4922392;29;20268;-81
2023/02/22 05:58:50;;;;;;;28.42;8.30;;;7.60;99.90;;;;;;4924670;29;20208;-79
2023/02/22 06:01:17;;;;;;;10.70;5.05;;;7.50;99.90;;;;;;4936880;29;20219;-79
2023/02/22 06:03:47;;;;;;;15.57;8.23;;;7.40;99.90;;;;;;4924564;29;20294;-81
2023/02/22 06:06:15;;;;;;;8.68;5.55;;;7.50;99.90;;;;;;4930508;29;20221;-80
2023/02/22 06:08:43;;;;;;;12.63;5.50;;;7.50;99.90;;;;;;4930967;29;20208;-80
2023/02/22 06:11:10;;;;;;;16.30;6.32;;;7.50;99.90;;;;;;4931195;29;20269;-79
2023/02/22 06:13:38;;;;;;;16.55;6.13;;;7.40;99.90;;;;;;4931832;29;20282;-80
2023/02/22 06:16:07;;;;;;;18.58;5.78;;;7.30;99.90;;;;;;4932627;29;20210;-79
2023/02/22 06:18:34;;;;;;;20.33;6.82;;;7.40;99.90;;;;;;4922506;29;20206;-79
2023/02/22 06:21:01;;;;;;;11.23;5.20;;;7.40;99.90;;;;;;4937620;29;20323;-80
2023/02/22 06:23:28;;;;;;;21.77;7.03;;;7.00;99.90;;;;;;4923974;29;20236;-78
2023/02/22 06:25:57;;;;;;;28.15;8.70;;;7.10;99.90;;;;;;4931622;29;20212;-80
2023/02/22 06:28:25;;;;;;;14.98;7.40;;;7.10;99.90;;;;;;4929434;29;20401;-79
2023/02/22 06:30:52;;;;;;;17.65;7.13;;;7.00;99.90;;;;;;4921159;29;20217;-79
2023/02/22 06:33:19;;;;;;;18.58;8.73;;;7.00;99.90;;;;;;4919301;29;20216;-79
2023/02/22 06:35:46;;;;;;;16.45;8.75;;;6.90;99.90;;;;;;4933912;29;20256;-78
2023/02/22 06:38:24;;;;;;;23.67;7.93;;;7.00;99.90;;;;;;4927824;29;20656;-79
2023/02/22 06:40:51;;;;;;;20.90;9.10;;;7.10;99.90;;;;;;4913921;29;20211;-80
2023/02/22 06:43:18;;;;;;;17.20;8.85;;;7.30;99.90;;;;;;4927869;29;20239;-81
2023/02/22 06:45:45;;;;;;;29.23;10.07;;;7.30;99.90;;;;;;4927561;29;20224;-81
2023/02/22 06:48:12;;;;;;;20.23;9.40;;;7.40;99.90;;;;;;4924525;29;20453;-81
2023/02/22 06:50:39;;;;;;;23.00;8.45;;;7.70;99.90;;;;;;4930976;29;20209;-79
2023/02/22 06:53:06;;;;;;;16.92;9.70;;;7.80;99.90;;;;;;4932059;29;20534;-80
2023/02/22 06:55:34;;;;;;;26.70;8.75;;;8.00;99.90;;;;;;4930848;29;20278;-79
2023/02/22 06:58:03;;;;;;;11.02;6.50;;;7.70;99.90;;;;;;4949488;29;20207;-80
2023/02/22 07:00:31;;;;;;;24.25;8.60;;;7.70;99.90;;;;;;4936204;29;20226;-79
2023/02/22 07:02:59;;;;;;;20.10;8.98;;;7.90;99.90;;;;;;4944448;28;20203;-79
2023/02/22 07:05:27;;;;;;;17.63;6.72;;;8.10;99.90;;;;;;4940882;28;20220;-80
2023/02/22 07:08:00;;;;;;;14.85;7.60;;;8.30;99.90;;;;;;4930770;29;20253;-78
2023/02/22 07:10:29;;;;;;;16.30;6.45;;;8.30;99.90;;;;;;4929693;29;20210;-80
2023/02/22 07:12:56;;;;;;;14.38;6.85;;;8.30;99.90;;;;;;4925943;29;20209;-80
2023/02/22 07:15:26;;;;;;;20.38;7.85;;;8.30;99.90;;;;;;4924404;29;20213;-80
2023/02/22 07:17:53;;;;;;;10.20;6.50;;;8.30;99.90;;;;;;4921384;29;20248;-81
2023/02/22 07:20:23;;;;;;;17.77;6.30;;;8.60;99.90;;;;;;4933439;29;20208;-81
2023/02/22 07:22:50;;;;;;;13.57;6.72;;;8.80;99.90;;;;;;4931637;29;20228;-80
2023/02/22 07:25:18;;;;;;;12.77;5.22;;;8.80;99.90;;;;;;4919448;29;20767;-81
2023/02/22 07:27:45;;;;;;;14.20;6.03;;;8.90;99.90;;;;;;4925595;29;20529;-80
2023/02/22 07:30:32;;;;;;;14.95;7.10;;;8.80;99.90;;;;;;4926489;29;20207;-80
2023/02/22 07:33:02;;;;;;;7.32;5.70;;;9.00;99.90;;;;;;4928183;29;20207;-79
2023/02/22 07:35:37;;;;;;;18.65;5.07;;;9.00;99.90;;;;;;4930225;29;20286;-81
2023/02/22 07:38:06;;;;;;;6.70;5.20;;;9.30;99.90;;;;;;4927021;29;20436;-81
2023/02/22 07:40:35;;;;;;;12.27;7.50;;;9.40;99.90;;;;;;4928493;29;20222;-80
2023/02/22 07:43:22;;;;;;;14.70;7.00;;;9.80;99.90;;;;;;4923211;29;20218;-80
2023/02/22 07:45:53;;;;;;;9.60;4.80;;;9.60;99.90;;;;;;4924792;29;20209;-81
2023/02/22 07:48:24;;;;;;;14.85;5.93;;;9.30;99.90;;;;;;4926235;29;20235;-80
2023/02/22 07:50:52;;;;;;;20.00;7.55;;;9.30;99.90;;;;;;4925320;29;20231;-82
2023/02/22 07:53:24;;;;;;;17.20;6.80;;;9.10;99.90;;;;;;4923300;29;20227;-80
2023/02/22 07:55:55;;;;;;;12.20;7.03;;;8.90;99.90;;;;;;4923521;29;20565;-81
2023/02/22 07:58:25;;;;;;;12.40;5.20;;;8.80;99.90;;;;;;4921196;29;20435;-81
2023/02/22 08:00:53;;;;;;;15.23;5.45;;;9.20;99.90;;;;;;4927612;29;20227;-80
2023/02/22 08:03:22;;;;;;;16.08;5.85;;;9.60;99.90;;;;;;4932429;29;20550;-82
2023/02/22 08:05:55;;;;;;;18.70;7.32;;;9.80;99.90;;;;;;4923400;29;20541;-82
2023/02/22 08:08:22;;;;;;;14.50;5.78;;;9.80;99.90;;;;;;4922548;29;20207;-81
2023/02/22 08:10:51;;;;;;;25.35;5.82;;;9.70;99.90;;;;;;4922468;29;20262;-82
2023/02/22 08:13:20;;;;;;;11.93;4.15;;;9.60;99.90;;;;;;4923018;29;20208;-82
2023/02/22 08:15:50;;;;;;;20.42;6.63;;;9.30;99.90;;;;;;4935578;29;20270;-80
2023/02/22 08:18:19;;;;;;;18.92;6.40;;;9.10;99.90;;;;;;4919959;29;20218;-81
2023/02/22 08:20:48;;;;;;;15.48;6.13;;;9.40;99.90;;;;;;4926481;29;20202;-81
2023/02/22 08:23:16;;;;;;;12.27;5.63;;;9.50;99.90;;;;;;4924321;29;20211;-82
2023/02/22 08:25:43;;;;;;;18.30;5.45;;;9.80;99.90;;;;;;4930351;29;20218;-82
2023/02/22 08:28:13;;;;;;;14.48;4.90;;;9.60;99.90;;;;;;4926976;29;20270;-81
2023/02/22 08:30:44;;;;;;;16.83;5.35;;;9.50;99.90;;;;;;4936043;29;20218;-81
2023/02/22 08:33:17;;;;;;;10.23;4.53;;;9.50;99.90;;;;;;4922227;29;20258;-81
2023/02/22 08:35:48;;;;;;;7.43;3.80;;;9.70;99.90;;;;;;4922398;29;20542;-81
2023/02/22 08:38:22;;;;;;;11.95;4.72;;;9.90;99.90;;;;;;4924107;29;20212;-81
2023/02/22 08:40:49;;;;;;;9.15;4.22;;;9.90;99.90;;;;;;4918736;29;20217;-81
2023/02/22 08:43:18;;;;;;;8.27;4.07;;;10.20;99.90;;;;;;4922694;29;20203;-80
2023/02/22 08:45:46;;;;;;;6.82;3.70;;;10.20;99.90;;;;;;4926600;29;20373;-82
2023/02/22 08:48:14;;;;;;;12.50;4.10;;;10.40;99.90;;;;;;4931374;29;20223;-81
2023/02/22 08:50:43;;;;;;;7.68;4.90;;;10.60;99.90;;;;;;4920831;29;20304;-82
2023/02/22 08:53:12;;;;;;;8.32;4.13;;;10.90;99.90;;;;;;4918204;29;20268;-81
2023/02/22 08:55:40;;;;;;;16.65;4.70;;;11.10;99.90;;;;;;4923412;29;20216;-82
2023/02/22 08:58:10;;;;;;;13.20;4.75;;;11.60;99.90;;;;;;4935038;29;20212;-83
2023/02/22 09:00:39;;;;;;;21.67;3.90;;;11.80;99.90;;;;;;4924795;29;20216;-80
2023/02/22 09:03:12;;;;;;;9.90;4.38;;;11.60;99.90;;;;;;4927619;29;20298;-81
2023/02/22 09:05:40;;;;;;;11.05;6.97;;;11.40;99.90;;;;;;4935449;29;20235;-79
2023/02/22 09:08:07;;;;;;;13.75;4.75;;;11.40;99.90;;;;;;4928963;29;20208;-80
2023/02/22 09:10:34;;;;;;;19.90;5.53;;;10.90;99.90;;;;;;4923742;29;20251;-80
2023/02/22 09:13:04;;;;;;;12.57;4.07;;;10.90;99.90;;;;;;4923427;29;20209;-81
2023/02/22 09:15:35;;;;;;;17.42;6.03;;;10.80;99.90;;;;;;4932681;29;20215;-81
2023/02/22 09:18:03;;;;;;;14.30;4.35;;;10.90;99.90;;;;;;4918030;29;20208;-81
2023/02/22 09:20:30;;;;;;;18.33;6.40;;;11.10;99.90;;;;;;4918312;29;20401;-80
2023/02/22 09:22:56;;;;;;;7.70;3.70;;;11.70;99.90;;;;;;4919369;29;20208;-81
2023/02/22 09:25:23;;;;;;;16.25;4.72;;;11.90;99.90;;;;;;4924357;29;20287;-81
2023/02/22 09:27:52;;;;;;;15.30;5.13;;;12.20;99.90;;;;;;4927209;29;20401;-79
2023/02/22 09:30:30;;;;;;;17.40;5.72;;;12.50;99.90;;;;;;4923035;29;20525;-81
2023/02/22 09:33:18;;;;;;;12.13;5.03;;;12.70;99.90;;;;;;4923909;29;20214;-81
2023/02/22 09:35:48;;;;;;;16.92;4.53;;;13.00;99.90;;;;;;4919710;29;20450;-80
2023/02/22 09:38:23;;;;;;;10.63;4.35;;;12.70;99.90;;;;;;4929908;29;20219;-80
2023/02/22 09:40:56;;;;;;;13.48;4.95;;;12.30;99.90;;;;;;4927191;29;20233;-81
2023/02/22 09:43:32;;;;;;;14.25;5.03;;;12.50;99.90;;;;;;4943287;29;20207;-82
2023/02/22 09:46:17;;;;;;;8.90;5.45;;;12.20;99.90;;;;;;4944400;29;20482;-80
2023/02/22 09:49:04;;;;;;;16.63;5.25;;;12.30;99.90;;;;;;4937839;29;20184;-82
2023/02/22 09:51:57;;;;;;;17.45;3.97;;;12.30;99.90;;;;;;4959150;29;20200;-82
2023/02/22 09:54:33;;;;;;;10.80;4.03;;;12.50;99.90;;;;;;4934396;29;20213;-80
2023/02/22 09:57:04;;;;;;;13.20;5.30;;;12.80;99.90;;;;;;4933932;29;20534;-82
2023/02/22 09:59:39;;;;;;;13.27;4.05;;;12.40;99.90;;;;;;4924071;29;20216;-81
2023/02/22 10:02:37;;;;;;;15.07;4.05;;;12.40;99.90;;;;;;4923980;29;20232;-80
2023/02/22 10:05:12;;;;;;;9.82;4.43;;;12.60;99.90;;;;;;4908936;29;20327;-81
2023/02/22 10:07:58;;;;;;;14.18;5.03;;;12.50;99.90;;;;;;4930013;29;20212;-80
2023/02/22 10:10:32;;;;;;;12.90;4.90;;;12.50;99.90;;;;;;4921313;29;20213;-80
2023/02/22 10:13:08;;;;;;;13.27;4.25;;;12.60;99.90;;;;;;4919152;29;20209;-81
2023/02/22 10:15:58;;;;;;;16.00;7.40;;;12.70;99.90;;;;;;4920505;29;20216;-82
2023/02/22 10:19:01;;;;;;;14.35;4.88;;;12.50;99.90;;;;;;4924284;29;20204;-81
2023/02/22 10:21:31;;;;;;;19.10;5.05;;;12.50;99.90;;;;;;4926173;29;20219;-81
2023/02/22 10:24:30;;;;;;;9.55;4.97;;;12.00;99.90;;;;;;4922019;29;20232;-80
2023/02/22 10:26:58;;;;;;;14.75;6.00;;;11.70;99.90;;;;;;4924533;29;20219;-79
2023/02/22 10:29:36;;;;;;;15.93;6.10;;;11.90;99.90;;;;;;4927018;29;20591;-80
2023/02/22 10:32:10;;;;;;;23.67;8.40;;;11.70;99.90;;;;;;4919785;29;20196;-82
2023/02/22 10:34:47;;;;;;;18.58;5.28;;;11.40;99.90;;;;;;4926580;29;20211;-79
2023/02/22 10:37:32;;;;;;;14.27;5.35;;;11.50;99.90;;;;;;4930650;29;20278;-81
2023/02/22 10:40:21;;;;;;;12.20;5.85;;;11.70;99.90;;;;;;4920849;29;20555;-80
2023/02/22 10:42:49;;;;;;;10.63;4.88;;;11.50;99.90;;;;;;4922160;29;20212;-82
2023/02/22 10:45:27;;;;;;;21.15;7.28;;;11.30;99.90;;;;;;4927619;29;20423;-80
2023/02/22 10:47:57;;;;;;;12.13;5.95;;;11.70;99.90;;;;;;4919955;29;20223;-83
2023/02/22 10:50:30;;;;;;;13.77;6.85;;;11.30;99.90;;;;;;4928007;29;20273;-82
2023/02/22 10:52:56;;;;;;;9.60;4.90;;;10.90;99.90;;;;;;4923632;29;20449;-80
2023/02/22 10:55:24;;;;;;;20.13;5.70;;;10.90;99.90;;;;;;4921335;29;20216;-80
2023/02/22 10:57:59;;;;;;;9.93;4.95;;;11.10;99.90;;;;;;4930466;29;20208;-80
2023/02/22 11:00:31;;;;;;;19.35;4.95;;;11.20;99.90;;;;;;4920606;29;20432;-80
2023/02/22 11:03:01;;;;;;;13.10;6.10;;;11.40;99.90;;;;;;4923452;29;20252;-81
2023/02/22 11:05:40;;;;;;;23.83;7.20;;;11.40;99.90;;;;;;4922703;29;20236;-80
2023/02/22 11:08:20;;;;;;;19.92;6.65;;;11.50;99.90;;;;;;4927193;29;20283;-80
2023/02/22 11:10:53;;;;;;;8.40;5.43;;;11.50;99.90;;;;;;4926515;29;20216;-81
2023/02/22 11:13:28;;;;;;;14.23;6.07;;;11.50;99.90;;;;;;4925891;29;20430;-80
2023/02/22 11:15:59;;;;;;;9.38;6.05;;;11.80;99.90;;;;;;4922314;29;20216;-81
2023/02/22 11:18:33;;;;;;;14.63;6.15;;;11.90;99.90;;;;;;4918519;29;20220;-81
2023/02/22 11:21:06;;;;;;;11.93;5.47;;;12.40;99.90;;;;;;4923379;29;20521;-81
2023/02/22 11:23:35;;;;;;;20.83;5.97;;;12.60;99.90;;;;;;4922323;29;20262;-80
2023/02/22 11:26:20;;;;;;;14.40;6.65;;;12.70;99.90;;;;;;4947972;29;20212;-81
2023/02/22 11:28:54;;;;;;;17.30;6.35;;;12.60;99.90;;;;;;4944609;29;20200;-81
2023/02/22 11:31:26;;;;;;;17.92;7.65;;;12.80;99.90;;;;;;4938045;29;20200;-82
2023/02/22 11:33:53;;;;;;;13.15;6.70;;;12.80;99.90;;;;;;4938535;29;20200;-81
2023/02/22 11:36:36;;;;;;;17.95;6.70;;;12.80;99.90;;;;;;4939487;28;20209;-79
2023/02/22 11:39:10;;;;;;;12.20;6.90;;;12.90;99.90;;;;;;4950001;28;20228;-83
2023/02/22 11:41:37;;;;;;;19.48;6.57;;;13.20;99.90;;;;;;4943586;28;20208;-81
2023/02/22 11:44:26;;;;;;;14.10;4.35;;;13.20;99.90;;;;;;4932044;29;20283;-81
2023/02/22 11:46:56;;;;;;;11.57;5.75;;;13.30;99.90;;;;;;4921608;29;20256;-82
2023/02/22 11:49:32;;;;;;;15.02;5.65;;;13.40;99.90;;;;;;4920736;29;20209;-82
2023/02/22 11:52:19;;;;;;;11.95;6.05;;;13.20;99.90;;;;;;4921304;29;20548;-81
2023/02/22 11:55:32;;;;;;;12.32;5.38;;;13.00;99.90;;;;;;4919998;29;20224;-80
2023/02/22 11:58:28;;;;;;;12.15;5.00;;;12.40;99.90;;;;;;4917429;29;20212;-82
2023/02/22 12:01:16;;;;;;;17.33;5.40;;;12.20;99.90;;;;;;4927074;29;20264;-81
2023/02/22 12:03:46;;;;;;;11.38;4.90;;;12.20;99.90;;;;;;4927398;29;20263;-81
2023/02/22 12:06:19;;;;;;;7.57;5.35;;;12.10;99.90;;;;;;4923813;29;20231;-81
2023/02/22 12:08:46;;;;;;;13.65;5.50;;;11.60;99.90;;;;;;4932332;29;20656;-82
2023/02/22 12:11:28;;;;;;;17.60;6.43;;;11.50;99.90;;;;;;4929990;29;20212;-81
2023/02/22 12:14:10;;;;;;;17.08;5.57;;;11.80;99.90;;;;;;4927939;29;20216;-81
2023/02/22 12:16:44;;;;;;;10.90;5.07;;;11.90;99.90;;;;;;4931148;29;20260;-79
2023/02/22 12:19:32;;;;;;;16.40;4.15;;;12.20;99.90;;;;;;4920147;29;20684;-79
2023/02/22 12:22:08;;;;;;;11.85;5.10;;;11.80;99.90;;;;;;4930166;29;20378;-80
2023/02/22 12:24:44;;;;;;;6.18;3.35;;;11.70;99.90;;;;;;4925622;29;20235;-81
2023/02/22 12:27:40;;;;;;;9.95;4.30;;;12.00;99.90;;;;;;4926983;29;20203;-82
2023/02/22 12:30:22;;;;;;;7.88;3.97;;;12.30;99.90;;;;;;4933960;29;20212;-80
2023/02/22 12:33:02;;;;;;;19.50;5.88;;;12.40;99.90;;;;;;4925960;29;20216;-81
2023/02/22 12:35:39;;;;;;;10.07;4.65;;;12.60;99.90;;;;;;4933981;29;20412;-80
2023/02/22 12:38:31;;;;;;;4.38;3.63;;;12.50;99.90;;;;;;4935456;29;20266;-83
2023/02/22 12:41:10;;;;;;;14.38;6.35;;;12.80;99.90;;;;;;4922674;29;20236;-80
2023/02/22 12:43:44;;;;;;;11.68;4.38;;;12.70;99.90;;;;;;4931049;29;20235;-80
2023/02/22 12:46:23;;;;;;;12.77;4.30;;;12.90;99.90;;;;;;4924817;29;20247;-81
2023/02/22 12:49:16;;;;;;;11.27;5.60;;;12.80;99.90;;;;;;4930907;29;20271;-80
2023/02/22 12:52:02;;;;;;;13.00;4.97;;;12.50;99.90;;;;;;4926793;29;20274;-81
2023/02/22 12:54:57;;;;;;;11.13;3.97;;;12.10;99.90;;;;;;4937064;29;20215;-80
2023/02/22 12:57:30;;;;;;;9.38;4.18;;;11.80;99.90;;;;;;4927701;29;20230;-80
2023/02/22 13:00:08;;;;;;;8.07;4.60;;;11.50;99.90;;;;;;4927965;29;20471;-81
2023/02/22 13:02:49;;;;;;;12.02;4.25;;;11.70;99.90;;;;;;4919524;29;20385;-81
2023/02/22 13:05:17;;;;;;;14.68;5.38;;;11.90;99.90;;;;;;4921392;29;20256;-82
2023/02/22 13:07:59;;;;;;;9.65;4.38;;;12.50;99.90;;;;;;4926292;29;20208;-81
2023/02/22 13:10:44;;;;;;;10.05;4.30;;;12.50;99.90;;;;;;4924059;29;20520;-81
2023/02/22 13:13:52;;;;;;;10.82;4.85;;;12.30;99.90;;;;;;4919368;29;20218;-81